Time;durP1;ratioP1;P1;durP2;ratioP2;P2;SDS_P1;SDS_P2;PMS_P1;PMS_P2;Temp;Humidity;BMP_temperature;BMP_pressure;BME280_temperature;BME280_humidity;BME280_pressure;Samples;Min_cycle;Max_cycle;Signal;HPM_P1;HPM_P2
2022/01/16 00:00:48;;;;;;;42.47;16.35;;;;;;;;;;5029481;28;20159;-67
2022/01/16 00:05:57;;;;;;;49.40;15.15;;;;;;;;;;5021181;28;20159;-67
2022/01/16 00:08:23;;;;;;;42.70;14.30;;;;;;;;;;5024758;28;20108;-67
2022/01/16 00:10:48;;;;;;;48.25;17.17;;;;;;;;;;5019110;28;20060;-67
2022/01/16 00:13:14;;;;;;;50.47;16.27;;;;;;;;;;5027259;28;20058;-68
2022/01/16 00:15:41;;;;;;;58.72;17.95;;;;;;;;;;5026339;28;20121;-67
2022/01/16 00:18:16;;;;;;;47.28;16.83;;;;;;;;;;5018530;28;20437;-67
2022/01/16 00:20:41;;;;;;;59.13;17.23;;;;;;;;;;5044030;28;20022;-66
2022/01/16 00:23:09;;;;;;;51.40;17.63;;;;;;;;;;5025955;28;20364;-67
2022/01/16 00:25:35;;;;;;;49.28;16.45;;;;;;;;;;5030939;28;20029;-68
2022/01/16 00:28:00;;;;;;;44.58;15.65;;;;;;;;;;5028347;28;20113;-67
2022/01/16 00:30:26;;;;;;;48.90;16.63;;;;;;;;;;5049348;28;20052;-67
2022/01/16 00:32:51;;;;;;;42.20;15.18;;;;;;;;;;5034812;28;20033;-67
2022/01/16 00:35:17;;;;;;;40.13;14.82;;;;;;;;;;5035852;28;20079;-68
2022/01/16 00:37:42;;;;;;;39.05;14.98;;;;;;;;;;5018593;28;20112;-67
2022/01/16 00:40:10;;;;;;;41.58;14.52;;;;;;;;;;5023884;28;20033;-68
2022/01/16 00:42:36;;;;;;;36.50;13.68;;;;;;;;;;5018204;28;20684;-67
2022/01/16 00:45:02;;;;;;;44.33;14.15;;;;;;;;;;5034460;28;20030;-67
2022/01/16 00:47:28;;;;;;;39.38;14.23;;;;;;;;;;5018574;28;20025;-67
2022/01/16 00:49:54;;;;;;;31.45;11.25;;;;;;;;;;5027600;28;20037;-67
2022/01/16 00:52:19;;;;;;;34.35;11.82;;;;;;;;;;5029850;28;20056;-67
2022/01/16 00:54:45;;;;;;;30.63;11.10;;;;;;;;;;5062424;28;20033;-67
2022/01/16 00:57:10;;;;;;;36.45;13.82;;;;;;;;;;5030208;28;20475;-67
2022/01/16 00:59:36;;;;;;;23.10;9.45;;;;;;;;;;5031447;28;20112;-67
2022/01/16 01:02:02;;;;;;;38.75;12.85;;;;;;;;;;5027940;28;20493;-67
2022/01/16 01:04:27;;;;;;;36.53;13.82;;;;;;;;;;5045453;28;20116;-67
2022/01/16 01:06:53;;;;;;;39.72;15.25;;;;;;;;;;5030137;28;20056;-68
2022/01/16 01:09:19;;;;;;;46.85;16.90;;;;;;;;;;5016860;28;20037;-67
2022/01/16 01:11:48;;;;;;;43.15;14.57;;;;;;;;;;5024954;28;20029;-67
2022/01/16 01:14:20;;;;;;;35.83;12.73;;;;;;;;;;5032971;28;20049;-67
2022/01/16 01:16:51;;;;;;;49.38;16.48;;;;;;;;;;5027003;28;20057;-67
2022/01/16 01:19:18;;;;;;;49.05;16.90;;;;;;;;;;5014630;28;20034;-68
2022/01/16 01:21:44;;;;;;;46.38;17.42;;;;;;;;;;5017114;28;20036;-67
2022/01/16 01:24:09;;;;;;;51.38;17.88;;;;;;;;;;5024891;28;20030;-67
2022/01/16 01:26:47;;;;;;;50.63;17.58;;;;;;;;;;5031913;28;20227;-67
2022/01/16 01:29:17;;;;;;;36.13;14.20;;;;;;;;;;5021475;28;20069;-67
2022/01/16 01:31:42;;;;;;;27.27;11.45;;;;;;;;;;5043958;28;20041;-67
2022/01/16 01:34:08;;;;;;;37.83;14.30;;;;;;;;;;5033198;28;20025;-67
2022/01/16 01:36:33;;;;;;;30.25;11.65;;;;;;;;;;5033349;28;20033;-67
2022/01/16 01:38:59;;;;;;;33.60;13.52;;;;;;;;;;5030228;28;20041;-67
2022/01/16 01:41:26;;;;;;;34.22;13.25;;;;;;;;;;5031310;28;20399;-67
2022/01/16 01:52:04;;;;;;;46.10;15.80;;;;;;;;;;5017939;28;20040;-67
2022/01/16 01:54:30;;;;;;;37.22;14.50;;;;;;;;;;5031142;28;20037;-67
2022/01/16 01:56:56;;;;;;;37.05;15.43;;;;;;;;;;5029767;28;20095;-67
2022/01/16 01:59:21;;;;;;;34.30;14.23;;;;;;;;;;5030235;28;20081;-68
2022/01/16 02:01:46;;;;;;;38.92;15.40;;;;;;;;;;5032540;28;20483;-67
2022/01/16 02:04:12;;;;;;;42.63;15.95;;;;;;;;;;5025670;28;20067;-67
2022/01/16 02:06:37;;;;;;;43.25;16.25;;;;;;;;;;5034378;28;20290;-67
2022/01/16 02:09:06;;;;;;;38.95;15.35;;;;;;;;;;5043040;28;20044;-67
2022/01/16 02:11:33;;;;;;;40.65;15.40;;;;;;;;;;5029006;28;20034;-67
2022/01/16 02:14:08;;;;;;;27.17;11.93;;;;;;;;;;5032241;28;20450;-67
2022/01/16 02:33:25;;;;;;;40.38;17.58;;;;;;;;;;5022728;28;20121;-67
2022/01/16 02:35:54;;;;;;;35.50;14.65;;;;;;;;;;5027120;28;20040;-67
2022/01/16 02:38:21;;;;;;;37.10;14.90;;;;;;;;;;5031901;28;20036;-68
2022/01/16 02:40:53;;;;;;;39.05;16.25;;;;;;;;;;5046762;28;20044;-67
2022/01/16 02:43:29;;;;;;;46.35;19.63;;;;;;;;;;5026076;28;20036;-67
2022/01/16 02:46:09;;;;;;;46.95;17.58;;;;;;;;;;5031473;28;20038;-67
2022/01/16 02:48:35;;;;;;;46.70;18.75;;;;;;;;;;5030975;28;20057;-67
2022/01/16 02:51:00;;;;;;;44.67;18.95;;;;;;;;;;5029017;28;20080;-67
2022/01/16 02:53:25;;;;;;;44.63;17.73;;;;;;;;;;5029274;28;20530;-67
2022/01/16 02:55:51;;;;;;;39.70;17.13;;;;;;;;;;5023453;28;20032;-67
2022/01/16 02:58:16;;;;;;;37.60;15.45;;;;;;;;;;5014467;28;20042;-67
2022/01/16 03:00:42;;;;;;;37.85;15.80;;;;;;;;;;5020971;28;20033;-67
2022/01/16 03:03:07;;;;;;;33.97;14.75;;;;;;;;;;5029761;28;20037;-67
2022/01/16 03:05:35;;;;;;;32.78;14.82;;;;;;;;;;5028827;28;20029;-67
2022/01/16 03:08:00;;;;;;;23.25;11.40;;;;;;;;;;5029970;28;20434;-67
2022/01/16 03:12:54;;;;;;;32.67;14.98;;;;;;;;;;5028860;28;20043;-68
2022/01/16 03:15:21;;;;;;;32.30;15.10;;;;;;;;;;5028629;28;20120;-66
2022/01/16 03:23:22;;;;;;;34.30;15.50;;;;;;;;;;5026774;28;20080;-67
2022/01/16 03:25:49;;;;;;;32.58;14.15;;;;;;;;;;5028412;28;20029;-67
2022/01/16 03:28:15;;;;;;;31.48;13.27;;;;;;;;;;5015503;28;20034;-67
2022/01/16 03:30:41;;;;;;;32.38;14.52;;;;;;;;;;5031265;28;20116;-67
2022/01/16 03:33:06;;;;;;;34.17;15.38;;;;;;;;;;5014971;28;20104;-67
2022/01/16 03:35:32;;;;;;;34.15;14.80;;;;;;;;;;5029854;28;20044;-67
2022/01/16 03:37:57;;;;;;;41.15;16.67;;;;;;;;;;5017992;28;20045;-67
2022/01/16 03:40:24;;;;;;;31.85;13.85;;;;;;;;;;5026242;28;20524;-67
2022/01/16 03:42:50;;;;;;;34.60;13.68;;;;;;;;;;5028719;28;20048;-67
2022/01/16 03:45:16;;;;;;;39.75;16.98;;;;;;;;;;5012051;28;20081;-67
2022/01/16 03:47:41;;;;;;;29.52;13.73;;;;;;;;;;5039261;28;20034;-67
2022/01/16 03:50:09;;;;;;;35.58;15.82;;;;;;;;;;5027042;28;20053;-67
2022/01/16 03:52:34;;;;;;;39.72;15.85;;;;;;;;;;5019440;28;20033;-67
2022/01/16 03:55:00;;;;;;;44.33;18.17;;;;;;;;;;5026003;28;20025;-67
2022/01/16 03:57:26;;;;;;;40.17;16.88;;;;;;;;;;5023207;28;20029;-68
2022/01/16 03:59:51;;;;;;;43.53;18.60;;;;;;;;;;5027237;28;20033;-67
2022/01/16 04:02:17;;;;;;;45.20;19.00;;;;;;;;;;5035778;28;20029;-67
2022/01/16 04:04:42;;;;;;;45.03;18.67;;;;;;;;;;5025013;28;20033;-67
2022/01/16 04:07:10;;;;;;;45.83;17.92;;;;;;;;;;5031252;28;20038;-68
2022/01/16 04:09:37;;;;;;;35.08;14.93;;;;;;;;;;5027945;28;20435;-67
2022/01/16 04:12:03;;;;;;;43.97;18.10;;;;;;;;;;5031966;28;20116;-67
2022/01/16 04:17:20;;;;;;;47.47;19.08;;;;;;;;;;5031539;28;20037;-67
2022/01/16 04:19:47;;;;;;;48.72;20.02;;;;;;;;;;5021210;28;20033;-67
2022/01/16 04:22:12;;;;;;;53.13;20.55;;;;;;;;;;5012007;28;20030;-67
2022/01/16 04:24:38;;;;;;;51.15;21.25;;;;;;;;;;5018836;28;20044;-67
2022/01/16 04:27:04;;;;;;;46.65;18.23;;;;;;;;;;5026868;28;20475;-67
2022/01/16 04:29:29;;;;;;;47.25;18.65;;;;;;;;;;5027290;28;20487;-68
2022/01/16 04:31:55;;;;;;;48.55;19.52;;;;;;;;;;5012979;28;20391;-67
2022/01/16 04:34:21;;;;;;;50.67;21.58;;;;;;;;;;5017199;28;20022;-67
2022/01/16 04:36:47;;;;;;;46.97;20.60;;;;;;;;;;5031592;28;20033;-67
2022/01/16 04:39:15;;;;;;;35.97;15.65;;;;;;;;;;5025430;28;20041;-67
2022/01/16 04:44:26;;;;;;;51.95;20.73;;;;;;;;;;5028937;28;20076;-67
2022/01/16 04:46:52;;;;;;;49.55;20.77;;;;;;;;;;5023693;28;20042;-67
2022/01/16 04:49:17;;;;;;;58.20;22.10;;;;;;;;;;5045157;28;20156;-67
2022/01/16 04:51:42;;;;;;;65.10;22.77;;;;;;;;;;5021567;28;20511;-67
2022/01/16 04:54:08;;;;;;;50.75;22.20;;;;;;;;;;5054312;28;20032;-67
2022/01/16 04:56:34;;;;;;;53.60;22.58;;;;;;;;;;5033329;28;20398;-67
2022/01/16 04:59:00;;;;;;;56.92;24.27;;;;;;;;;;5028539;28;20446;-67
2022/01/16 05:01:25;;;;;;;39.42;17.05;;;;;;;;;;5024009;28;20030;-67
2022/01/16 05:03:51;;;;;;;55.50;22.50;;;;;;;;;;5007214;28;20040;-67
2022/01/16 05:06:17;;;;;;;55.20;22.15;;;;;;;;;;5025815;28;20518;-67
2022/01/16 05:08:42;;;;;;;58.92;22.23;;;;;;;;;;5030501;28;20037;-67
2022/01/16 05:11:10;;;;;;;56.33;22.23;;;;;;;;;;5022601;28;20062;-67
2022/01/16 05:18:46;;;;;;;41.95;18.70;;;;;;;;;;5032538;28;20044;-67
2022/01/16 05:21:12;;;;;;;49.05;18.23;;;;;;;;;;5035062;28;20026;-67
2022/01/16 05:23:40;;;;;;;73.60;25.00;;;;;;;;;;5049128;28;20029;-67
2022/01/16 05:26:06;;;;;;;66.80;23.85;;;;;;;;;;5046583;28;20108;-67
2022/01/16 05:28:32;;;;;;;71.53;25.10;;;;;;;;;;5036510;28;20124;-66
2022/01/16 05:30:57;;;;;;;63.70;23.08;;;;;;;;;;5054124;28;20447;-67
2022/01/16 05:33:23;;;;;;;63.38;22.10;;;;;;;;;;5086764;28;20424;-67
2022/01/16 05:35:49;;;;;;;68.18;22.42;;;;;;;;;;5048894;28;20041;-67
2022/01/16 05:38:15;;;;;;;70.95;23.75;;;;;;;;;;5021595;28;20391;-67
2022/01/16 05:40:42;;;;;;;72.57;24.33;;;;;;;;;;5053309;28;20032;-67
2022/01/16 05:43:09;;;;;;;76.38;26.38;;;;;;;;;;5028254;28;20041;-67
2022/01/16 05:45:35;;;;;;;83.53;26.05;;;;;;;;;;5025137;28;20060;-68
2022/01/16 05:48:00;;;;;;;76.68;23.80;;;;;;;;;;5033938;28;20029;-67
2022/01/16 05:50:26;;;;;;;75.72;23.73;;;;;;;;;;5053500;28;20033;-67
2022/01/16 05:52:52;;;;;;;78.63;26.92;;;;;;;;;;5038952;28;20609;-67
2022/01/16 05:55:18;;;;;;;75.50;24.75;;;;;;;;;;5033223;28;20112;-67
2022/01/16 05:57:44;;;;;;;71.45;23.95;;;;;;;;;;5033223;28;20025;-67
2022/01/16 06:00:12;;;;;;;74.60;26.48;;;;;;;;;;5050881;28;20063;-67
2022/01/16 06:02:37;;;;;;;87.88;25.20;;;;;;;;;;5053289;28;20528;-67
2022/01/16 06:05:04;;;;;;;44.67;17.60;;;;;;;;;;5037015;28;20037;-67
2022/01/16 06:07:29;;;;;;;53.25;17.73;;;;;;;;;;5043874;28;20075;-67
2022/01/16 06:09:55;;;;;;;74.00;23.83;;;;;;;;;;5048933;28;20036;-66
2022/01/16 06:12:21;;;;;;;66.78;24.08;;;;;;;;;;5013813;28;20030;-66
2022/01/16 06:14:46;;;;;;;90.47;28.05;;;;;;;;;;5039722;28;20051;-67
2022/01/16 06:17:12;;;;;;;82.35;27.17;;;;;;;;;;5046893;28;20051;-66
2022/01/16 06:19:38;;;;;;;83.68;28.38;;;;;;;;;;5052426;28;20036;-67
2022/01/16 06:22:03;;;;;;;85.57;26.65;;;;;;;;;;5085931;28;20028;-67
2022/01/16 06:24:29;;;;;;;56.45;21.08;;;;;;;;;;5053222;28;20489;-67
2022/01/16 06:26:55;;;;;;;79.95;27.70;;;;;;;;;;5037103;28;20194;-67
2022/01/16 06:29:20;;;;;;;71.05;24.20;;;;;;;;;;5040831;28;20030;-67
2022/01/16 06:31:46;;;;;;;101.28;29.75;;;;;;;;;;5031994;28;20025;-67
2022/01/16 06:34:11;;;;;;;76.70;26.95;;;;;;;;;;5035586;28;20032;-67
2022/01/16 06:36:37;;;;;;;85.95;28.40;;;;;;;;;;5031179;28;20053;-65
2022/01/16 06:39:08;;;;;;;93.95;30.77;;;;;;;;;;5033137;28;20029;-64
2022/01/16 06:41:34;;;;;;;85.10;28.10;;;;;;;;;;5033540;28;20486;-63
2022/01/16 06:43:59;;;;;;;90.85;29.10;;;;;;;;;;5033162;28;20483;-63
2022/01/16 06:46:25;;;;;;;72.68;27.15;;;;;;;;;;5032269;28;20056;-65
2022/01/16 06:48:51;;;;;;;84.00;30.67;;;;;;;;;;5032909;28;20125;-65
2022/01/16 06:51:19;;;;;;;75.63;28.58;;;;;;;;;;5031785;28;20643;-65
2022/01/16 06:53:49;;;;;;;71.07;24.73;;;;;;;;;;5048363;28;20466;-65
2022/01/16 06:56:16;;;;;;;67.28;23.40;;;;;;;;;;5052811;28;20032;-65
2022/01/16 06:58:41;;;;;;;90.95;29.48;;;;;;;;;;5039531;28;20103;-64
2022/01/16 07:01:08;;;;;;;53.22;16.83;;;;;;;;;;5039368;28;20132;-65
2022/01/16 07:03:33;;;;;;;58.33;22.08;;;;;;;;;;5043436;28;20102;-64
2022/01/16 07:06:00;;;;;;;85.38;30.17;;;;;;;;;;5049796;28;20029;-65
2022/01/16 07:08:26;;;;;;;79.15;27.50;;;;;;;;;;5046961;28;20068;-65
2022/01/16 07:10:54;;;;;;;68.50;25.75;;;;;;;;;;5051874;28;20463;-65
2022/01/16 07:13:21;;;;;;;46.70;18.02;;;;;;;;;;5041061;28;20044;-65
2022/01/16 07:15:47;;;;;;;72.65;28.27;;;;;;;;;;5031185;28;20101;-65
2022/01/16 07:18:12;;;;;;;68.95;27.23;;;;;;;;;;5037248;28;20128;-64
2022/01/16 07:20:38;;;;;;;66.15;26.27;;;;;;;;;;5041725;28;20038;-65
2022/01/16 07:23:05;;;;;;;54.17;21.00;;;;;;;;;;5046367;28;20407;-65
2022/01/16 07:25:30;;;;;;;60.83;25.48;;;;;;;;;;5052156;28;20039;-64
2022/01/16 07:27:56;;;;;;;65.60;25.67;;;;;;;;;;5040868;28;20131;-65
2022/01/16 07:30:21;;;;;;;48.00;19.63;;;;;;;;;;5042285;28;20080;-65
2022/01/16 07:32:47;;;;;;;61.28;25.52;;;;;;;;;;5042536;28;20120;-66
2022/01/16 07:35:12;;;;;;;74.63;29.65;;;;;;;;;;5043656;28;20032;-66
2022/01/16 07:37:38;;;;;;;63.05;26.23;;;;;;;;;;5020899;28;20033;-66
2022/01/16 07:40:04;;;;;;;63.45;25.05;;;;;;;;;;5076155;28;20032;-64
2022/01/16 07:42:29;;;;;;;47.03;21.33;;;;;;;;;;5031906;28;20060;-64
2022/01/16 07:44:55;;;;;;;78.72;30.08;;;;;;;;;;5033924;28;20037;-65
2022/01/16 07:47:20;;;;;;;73.43;30.58;;;;;;;;;;5049627;28;20043;-65
2022/01/16 07:49:46;;;;;;;58.58;24.80;;;;;;;;;;5082552;28;20028;-65
2022/01/16 07:52:11;;;;;;;51.50;21.65;;;;;;;;;;5027933;28;20030;-66
2022/01/16 07:54:36;;;;;;;80.45;31.42;;;;;;;;;;5027621;28;20531;-66
2022/01/16 07:57:04;;;;;;;81.43;31.75;;;;;;;;;;5050014;28;20032;-65
2022/01/16 07:59:29;;;;;;;60.17;24.90;;;;;;;;;;5051875;28;20455;-65
2022/01/16 08:01:55;;;;;;;60.97;26.15;;;;;;;;;;5031881;28;20041;-65
2022/01/16 08:04:20;;;;;;;66.70;26.08;;;;;;;;;;5037258;28;20052;-65
2022/01/16 08:06:45;;;;;;;78.72;30.52;;;;;;;;;;5032816;28;20042;-66
2022/01/16 08:09:11;;;;;;;71.72;29.83;;;;;;;;;;5012061;28;20038;-65
2022/01/16 08:11:36;;;;;;;65.38;25.48;;;;;;;;;;5011891;28;20522;-65
2022/01/16 08:14:02;;;;;;;69.38;29.00;;;;;;;;;;5018595;28;20792;-65
2022/01/16 08:16:28;;;;;;;73.95;29.65;;;;;;;;;;5027995;28;20495;-65
2022/01/16 08:18:53;;;;;;;69.43;29.38;;;;;;;;;;5022799;28;20033;-66
2022/01/16 08:21:18;;;;;;;46.50;22.08;;;;;;;;;;5041817;28;20048;-66
2022/01/16 08:23:44;;;;;;;49.13;20.38;;;;;;;;;;5026738;28;20036;-64
2022/01/16 08:26:09;;;;;;;66.10;25.67;;;;;;;;;;5051369;28;20100;-66
2022/01/16 08:28:35;;;;;;;72.25;28.48;;;;;;;;;;5044698;28;20038;-65
2022/01/16 08:31:00;;;;;;;66.00;24.75;;;;;;;;;;5029086;28;20109;-66
2022/01/16 08:33:25;;;;;;;60.58;27.23;;;;;;;;;;5031039;28;20380;-65
2022/01/16 08:35:51;;;;;;;59.17;24.42;;;;;;;;;;5029264;28;20034;-65
2022/01/16 08:38:17;;;;;;;57.58;24.10;;;;;;;;;;5015752;28;20043;-65
2022/01/16 08:40:43;;;;;;;73.80;29.80;;;;;;;;;;5045741;28;20467;-65
2022/01/16 08:43:09;;;;;;;49.63;19.08;;;;;;;;;;5013536;28;20034;-65
2022/01/16 08:45:36;;;;;;;58.03;25.23;;;;;;;;;;5031113;28;20108;-65
2022/01/16 08:48:01;;;;;;;78.40;31.05;;;;;;;;;;5033329;28;20095;-65
2022/01/16 08:50:27;;;;;;;48.03;21.35;;;;;;;;;;5049178;28;20073;-66
2022/01/16 08:52:53;;;;;;;62.72;27.65;;;;;;;;;;5050292;28;20030;-65
2022/01/16 08:55:18;;;;;;;70.05;30.08;;;;;;;;;;5016736;28;20022;-65
2022/01/16 08:57:44;;;;;;;69.65;28.73;;;;;;;;;;5034761;28;20112;-67
2022/01/16 09:00:10;;;;;;;60.72;23.73;;;;;;;;;;5032476;28;20052;-66
2022/01/16 09:02:36;;;;;;;45.58;20.10;;;;;;;;;;5045783;28;20033;-67
2022/01/16 09:05:03;;;;;;;66.72;27.60;;;;;;;;;;5014689;28;20049;-67
2022/01/16 09:07:29;;;;;;;49.90;21.50;;;;;;;;;;5034472;28;20038;-66
2022/01/16 09:09:56;;;;;;;73.20;27.73;;;;;;;;;;5033698;28;20037;-64
2022/01/16 09:12:22;;;;;;;71.57;28.38;;;;;;;;;;5045591;28;20032;-64
2022/01/16 09:14:47;;;;;;;68.90;29.05;;;;;;;;;;5033926;28;20129;-65
2022/01/16 09:17:13;;;;;;;50.83;22.70;;;;;;;;;;5034283;28;20046;-65
2022/01/16 09:19:38;;;;;;;56.63;25.02;;;;;;;;;;5035172;28;20029;-64
2022/01/16 09:22:04;;;;;;;51.50;22.70;;;;;;;;;;5042436;28;20033;-64
2022/01/16 09:24:31;;;;;;;55.53;26.60;;;;;;;;;;5014759;28;20034;-64
2022/01/16 09:26:56;;;;;;;47.67;19.75;;;;;;;;;;5021434;28;20464;-64
2022/01/16 09:29:22;;;;;;;66.85;27.73;;;;;;;;;;5034227;28;20044;-64
2022/01/16 09:31:47;;;;;;;62.55;27.45;;;;;;;;;;5034029;28;20520;-66
2022/01/16 09:34:13;;;;;;;56.65;25.73;;;;;;;;;;5032844;28;20421;-65
2022/01/16 09:36:38;;;;;;;53.63;24.85;;;;;;;;;;5043728;28;20039;-65
2022/01/16 09:39:04;;;;;;;60.17;27.08;;;;;;;;;;5023349;28;20042;-66
2022/01/16 09:41:29;;;;;;;41.88;20.80;;;;;;;;;;5022130;28;20157;-64
2022/01/16 09:43:55;;;;;;;46.25;22.30;;;;;;;;;;5018422;28;20378;-64
2022/01/16 09:46:21;;;;;;;55.47;24.20;;;;;;;;;;5046393;28;20032;-65
2022/01/16 09:48:46;;;;;;;60.30;25.95;;;;;;;;;;5053605;28;20036;-66
2022/01/16 09:51:12;;;;;;;52.42;22.58;;;;;;;;;;5053552;28;20025;-65
2022/01/16 09:53:41;;;;;;;51.63;23.40;;;;;;;;;;5053852;28;20033;-65
2022/01/16 09:56:07;;;;;;;53.58;25.25;;;;;;;;;;5053397;28;20036;-65
2022/01/16 09:58:34;;;;;;;46.88;23.27;;;;;;;;;;5047584;28;20402;-65
2022/01/16 10:00:59;;;;;;;44.05;21.83;;;;;;;;;;5013446;28;20034;-65
2022/01/16 10:03:41;;;;;;;47.95;20.70;;;;;;;;;;5013767;28;20045;-64
2022/01/16 10:06:20;;;;;;;45.28;20.30;;;;;;;;;;5013874;28;20022;-66
2022/01/16 10:08:47;;;;;;;40.05;19.80;;;;;;;;;;5036376;28;20041;-66
2022/01/16 10:11:34;;;;;;;38.38;17.13;;;;;;;;;;5045562;28;20037;-65
2022/01/16 10:14:08;;;;;;;45.80;22.23;;;;;;;;;;5013305;28;20041;-66
2022/01/16 10:16:37;;;;;;;39.53;18.90;;;;;;;;;;5014060;28;20038;-65
2022/01/16 10:19:03;;;;;;;37.85;17.70;;;;;;;;;;5012846;28;20506;-65
2022/01/16 10:21:35;;;;;;;46.95;21.75;;;;;;;;;;5013867;28;20030;-65
2022/01/16 10:24:15;;;;;;;45.10;22.90;;;;;;;;;;5015603;28;20030;-65
2022/01/16 10:26:40;;;;;;;45.08;21.40;;;;;;;;;;5045601;28;20021;-65
2022/01/16 10:29:06;;;;;;;51.70;24.75;;;;;;;;;;5012474;28;20037;-65
2022/01/16 10:31:31;;;;;;;47.50;21.80;;;;;;;;;;5013736;28;20400;-65
2022/01/16 10:33:57;;;;;;;43.97;21.45;;;;;;;;;;5012816;28;20037;-65
2022/01/16 10:36:33;;;;;;;36.67;16.50;;;;;;;;;;5013732;28;20037;-65
2022/01/16 10:39:04;;;;;;;41.90;20.45;;;;;;;;;;5015012;28;20061;-64
2022/01/16 10:41:30;;;;;;;43.35;19.63;;;;;;;;;;5013436;28;20439;-66
2022/01/16 10:43:55;;;;;;;30.80;16.48;;;;;;;;;;5012666;28;20112;-65
2022/01/16 10:46:25;;;;;;;47.40;22.40;;;;;;;;;;5012999;28;20065;-65
2022/01/16 10:49:10;;;;;;;44.72;21.60;;;;;;;;;;5012471;28;20040;-66
2022/01/16 10:51:37;;;;;;;43.95;18.77;;;;;;;;;;5013457;28;20030;-64
2022/01/16 10:54:31;;;;;;;47.95;21.98;;;;;;;;;;5014882;28;20479;-65
2022/01/16 10:56:56;;;;;;;41.92;19.77;;;;;;;;;;5012370;28;20026;-65
2022/01/16 10:59:23;;;;;;;42.20;20.20;;;;;;;;;;5028477;28;20041;-64
2022/01/16 11:02:08;;;;;;;47.53;21.50;;;;;;;;;;5013282;28;20054;-65
2022/01/16 11:04:33;;;;;;;41.67;19.77;;;;;;;;;;5012925;28;20455;-64
2022/01/16 11:07:03;;;;;;;40.00;19.05;;;;;;;;;;5014484;28;20057;-66
2022/01/16 11:09:28;;;;;;;32.50;14.65;;;;;;;;;;5031009;28;20037;-65
2022/01/16 11:11:59;;;;;;;37.28;17.73;;;;;;;;;;5031282;28;20547;-66
2022/01/16 11:14:24;;;;;;;47.88;20.95;;;;;;;;;;5032735;28;20464;-65
2022/01/16 11:16:50;;;;;;;33.45;15.30;;;;;;;;;;5022338;28;20045;-65
2022/01/16 11:19:15;;;;;;;39.05;17.77;;;;;;;;;;5012507;28;20037;-65
2022/01/16 11:21:45;;;;;;;44.65;18.85;;;;;;;;;;5013270;28;20034;-65
2022/01/16 11:26:59;;;;;;;35.97;16.23;;;;;;;;;;5000752;28;20038;-65
2022/01/16 11:29:25;;;;;;;41.08;16.90;;;;;;;;;;5012818;28;20034;-65
2022/01/16 11:31:51;;;;;;;43.08;18.08;;;;;;;;;;5027333;28;20030;-65
2022/01/16 11:34:16;;;;;;;32.70;15.25;;;;;;;;;;5012075;28;20376;-64
2022/01/16 11:36:44;;;;;;;35.53;17.92;;;;;;;;;;5027647;28;20109;-65
2022/01/16 11:39:11;;;;;;;40.13;18.70;;;;;;;;;;5013979;28;20034;-65
2022/01/16 11:41:50;;;;;;;42.97;20.88;;;;;;;;;;5012283;28;20371;-63
2022/01/16 11:44:28;;;;;;;42.33;20.98;;;;;;;;;;5011722;28;20044;-65
2022/01/16 11:46:56;;;;;;;40.85;18.38;;;;;;;;;;5012413;28;20034;-66
2022/01/16 11:49:32;;;;;;;33.47;16.90;;;;;;;;;;5011736;28;20041;-65
2022/01/16 11:52:04;;;;;;;36.95;16.83;;;;;;;;;;5011944;28;20025;-66
2022/01/16 11:54:34;;;;;;;29.25;13.57;;;;;;;;;;5012733;28;20037;-66
2022/01/16 11:57:17;;;;;;;48.00;21.35;;;;;;;;;;5011549;28;20055;-65
2022/01/16 11:59:43;;;;;;;40.30;19.40;;;;;;;;;;5027093;28;20033;-65
2022/01/16 12:02:08;;;;;;;45.67;20.77;;;;;;;;;;5011328;28;20060;-65
2022/01/16 12:04:33;;;;;;;43.78;17.55;;;;;;;;;;5012356;28;20353;-65
2022/01/16 12:07:15;;;;;;;44.53;21.00;;;;;;;;;;5013538;28;20026;-65
2022/01/16 12:09:57;;;;;;;47.42;19.80;;;;;;;;;;5011958;28;20124;-65
2022/01/16 12:12:22;;;;;;;48.33;20.63;;;;;;;;;;5012051;28;20030;-65
2022/01/16 12:15:17;;;;;;;51.38;23.08;;;;;;;;;;5011938;28;20046;-64
2022/01/16 12:17:46;;;;;;;49.50;22.60;;;;;;;;;;5027252;28;20037;-65
2022/01/16 12:20:15;;;;;;;42.83;22.75;;;;;;;;;;5010850;28;20434;-65
2022/01/16 12:23:04;;;;;;;47.53;20.33;;;;;;;;;;5018578;28;20115;-65
2022/01/16 12:25:41;;;;;;;48.42;18.15;;;;;;;;;;5018768;28;20503;-65
2022/01/16 12:28:09;;;;;;;52.25;23.08;;;;;;;;;;5017569;28;20038;-64
2022/01/16 12:30:41;;;;;;;54.15;22.35;;;;;;;;;;5018624;28;20048;-65
2022/01/16 12:33:16;;;;;;;45.70;20.38;;;;;;;;;;5017572;28;20124;-66
2022/01/16 12:35:46;;;;;;;39.90;18.10;;;;;;;;;;5018282;28;20022;-65
2022/01/16 12:38:24;;;;;;;53.75;22.45;;;;;;;;;;5019706;28;20392;-65
2022/01/16 12:40:53;;;;;;;49.58;21.42;;;;;;;;;;5018056;28;20112;-65
2022/01/16 12:43:29;;;;;;;39.42;18.40;;;;;;;;;;5017661;28;20049;-65
2022/01/16 12:45:55;;;;;;;42.03;17.90;;;;;;;;;;5033295;28;20065;-65
2022/01/16 12:48:21;;;;;;;46.20;21.63;;;;;;;;;;5017736;28;20021;-65
2022/01/16 12:50:47;;;;;;;43.55;19.27;;;;;;;;;;5033739;28;20034;-65
2022/01/16 12:53:13;;;;;;;59.45;25.23;;;;;;;;;;5019721;28;20399;-65
2022/01/16 12:55:39;;;;;;;45.53;20.58;;;;;;;;;;5022514;28;20038;-64
2022/01/16 12:58:18;;;;;;;58.80;23.05;;;;;;;;;;5016783;28;20388;-65
2022/01/16 13:01:01;;;;;;;56.08;22.35;;;;;;;;;;5050036;28;20110;-65
2022/01/16 13:03:28;;;;;;;58.65;24.23;;;;;;;;;;5019822;28;20033;-64
2022/01/16 13:06:23;;;;;;;62.40;24.50;;;;;;;;;;5017662;28;20026;-64
2022/01/16 13:08:58;;;;;;;59.97;25.02;;;;;;;;;;5050327;28;20068;-65
2022/01/16 13:11:26;;;;;;;53.08;20.30;;;;;;;;;;5018252;28;20038;-65
2022/01/16 13:13:52;;;;;;;56.13;23.13;;;;;;;;;;5017694;28;20492;-65
2022/01/16 13:16:25;;;;;;;55.28;24.23;;;;;;;;;;5017302;28;20050;-65
2022/01/16 13:18:58;;;;;;;53.55;20.48;;;;;;;;;;5017415;28;20033;-64
2022/01/16 13:21:32;;;;;;;48.17;18.88;;;;;;;;;;5017478;28;20036;-65
2022/01/16 13:23:57;;;;;;;35.53;17.45;;;;;;;;;;5019411;28;20541;-65
2022/01/16 13:26:27;;;;;;;58.85;22.67;;;;;;;;;;5016714;28;20030;-65
2022/01/16 13:29:04;;;;;;;58.83;22.83;;;;;;;;;;5032770;28;20113;-64
2022/01/16 13:31:30;;;;;;;54.58;23.70;;;;;;;;;;5017822;28;20061;-64
2022/01/16 13:34:30;;;;;;;42.60;16.23;;;;;;;;;;5018104;28;20068;-64
2022/01/16 13:36:56;;;;;;;49.15;18.50;;;;;;;;;;5010891;28;20080;-64
2022/01/16 13:39:51;;;;;;;38.67;17.10;;;;;;;;;;5029285;28;20066;-66
2022/01/16 13:42:38;;;;;;;42.22;17.23;;;;;;;;;;5016132;28;20033;-66
2022/01/16 13:45:35;;;;;;;50.92;21.55;;;;;;;;;;5014038;28;20030;-69
2022/01/16 13:48:17;;;;;;;54.97;21.95;;;;;;;;;;5032265;28;20064;-65
2022/01/16 13:50:47;;;;;;;41.53;16.33;;;;;;;;;;5052415;28;20032;-63
2022/01/16 13:53:16;;;;;;;41.65;16.00;;;;;;;;;;5049782;28;20048;-64
2022/01/16 13:55:59;;;;;;;46.03;17.73;;;;;;;;;;5054384;28;20451;-64
2022/01/16 13:58:27;;;;;;;55.22;21.48;;;;;;;;;;5037058;28;20033;-65
2022/01/16 14:00:58;;;;;;;48.60;20.27;;;;;;;;;;5028698;28;20450;-65
2022/01/16 14:03:26;;;;;;;47.50;19.48;;;;;;;;;;5039006;28;20033;-65
2022/01/16 14:05:54;;;;;;;45.05;17.63;;;;;;;;;;5042830;28;20045;-65
2022/01/16 14:08:33;;;;;;;40.90;17.63;;;;;;;;;;5048110;28;20387;-64
2022/01/16 14:11:10;;;;;;;46.92;19.48;;;;;;;;;;5045980;28;20072;-66
2022/01/16 14:13:50;;;;;;;46.08;18.38;;;;;;;;;;5042177;28;20416;-65
2022/01/16 14:16:16;;;;;;;49.80;19.25;;;;;;;;;;5084857;28;20087;-65
2022/01/16 14:19:04;;;;;;;39.45;15.55;;;;;;;;;;5045837;28;20021;-65
2022/01/16 14:24:07;;;;;;;42.03;17.30;;;;;;;;;;5025934;28;20034;-65
2022/01/16 14:26:44;;;;;;;50.63;19.38;;;;;;;;;;5053227;28;20037;-64
2022/01/16 14:29:12;;;;;;;44.28;16.92;;;;;;;;;;5052729;28;20061;-65
2022/01/16 14:31:38;;;;;;;31.40;13.93;;;;;;;;;;5040488;28;20064;-65
2022/01/16 14:34:03;;;;;;;41.47;16.42;;;;;;;;;;5045420;28;20395;-66
2022/01/16 14:36:29;;;;;;;44.08;17.88;;;;;;;;;;5051115;28;20028;-65
2022/01/16 14:38:54;;;;;;;36.08;14.07;;;;;;;;;;5046227;28;20184;-65
2022/01/16 14:41:22;;;;;;;43.15;18.00;;;;;;;;;;5043001;28;20116;-65
2022/01/16 14:43:57;;;;;;;38.50;15.25;;;;;;;;;;5052011;28;20453;-66
2022/01/16 14:46:25;;;;;;;47.10;18.30;;;;;;;;;;5043624;28;20040;-66
2022/01/16 14:48:52;;;;;;;38.88;17.15;;;;;;;;;;5040297;28;20042;-65
2022/01/16 14:51:18;;;;;;;39.17;14.45;;;;;;;;;;5043514;28;20033;-66
2022/01/16 14:53:43;;;;;;;35.55;15.45;;;;;;;;;;5048968;28;20471;-65
2022/01/16 14:56:11;;;;;;;41.92;15.82;;;;;;;;;;5037401;28;20044;-66
2022/01/16 14:58:37;;;;;;;38.67;15.45;;;;;;;;;;5034636;28;20497;-65
2022/01/16 15:01:02;;;;;;;37.80;16.23;;;;;;;;;;5048559;28;20037;-65
2022/01/16 15:03:28;;;;;;;39.90;14.98;;;;;;;;;;5042435;28;20044;-65
2022/01/16 15:05:53;;;;;;;50.30;21.08;;;;;;;;;;5042871;28;20036;-65
2022/01/16 15:08:18;;;;;;;34.97;15.77;;;;;;;;;;5048305;28;20106;-65
2022/01/16 15:10:44;;;;;;;42.33;18.48;;;;;;;;;;5052409;28;20033;-64
2022/01/16 15:13:10;;;;;;;37.78;16.30;;;;;;;;;;5041551;28;20029;-65